createdAt,value
2018-04-13T00:01:14.342Z,30.57
2018-04-13T00:03:41.934Z,37.50
2018-04-13T00:06:09.570Z,35.87
2018-04-13T00:08:37.159Z,36.60
2018-04-13T00:11:04.790Z,38.60
2018-04-13T00:13:33.177Z,38.03
2018-04-13T00:16:00.802Z,37.37
2018-04-13T00:18:28.394Z,45.77
2018-04-13T00:20:56.019Z,34.90
2018-04-13T00:23:23.614Z,32.87
2018-04-13T00:25:51.246Z,35.43
2018-04-13T00:28:18.834Z,39.67
2018-04-13T00:30:46.451Z,37.87
2018-04-13T00:33:14.038Z,36.77
2018-04-13T00:35:41.655Z,38.53
2018-04-13T00:38:10.015Z,34.57
2018-04-13T00:40:37.639Z,37.67
2018-04-13T00:43:05.229Z,39.13
2018-04-13T00:45:32.852Z,42.80
2018-04-13T00:48:00.443Z,37.23
2018-04-13T00:50:28.075Z,36.07
2018-04-13T00:53:07.455Z,36.97
2018-04-13T00:55:35.083Z,37.90
2018-04-13T00:58:02.678Z,36.97
2018-04-13T01:00:30.575Z,32.30
2018-04-13T01:02:58.198Z,44.97
2018-04-13T01:05:25.791Z,41.17
2018-04-13T01:07:54.182Z,37.87
2018-04-13T01:10:21.772Z,39.50
2018-04-13T01:12:50.153Z,45.70
2018-04-13T01:15:17.754Z,39.57
2018-04-13T01:17:46.138Z,43.20
2018-04-13T01:20:14.509Z,41.63
2018-04-13T01:22:42.897Z,41.83
2018-04-13T01:25:11.255Z,38.80
2018-04-13T01:27:38.878Z,38.20
2018-04-13T01:30:06.473Z,46.83
2018-04-13T01:32:34.100Z,43.57
2018-04-13T01:35:01.692Z,48.30
2018-04-13T01:37:29.308Z,45.80
2018-04-13T01:39:56.898Z,43.10
2018-04-13T01:42:24.516Z,42.80
2018-04-13T01:44:52.121Z,48.43
2018-04-13T01:47:19.744Z,46.10
2018-04-13T01:49:47.339Z,48.67
2018-04-13T01:52:14.962Z,45.47
2018-04-13T01:54:42.558Z,50.80
2018-04-13T01:57:10.187Z,39.40
2018-04-13T01:59:37.799Z,46.93
2018-04-13T02:02:05.400Z,40.13
2018-04-13T02:04:33.791Z,43.33
2018-04-13T02:07:01.382Z,38.00
2018-04-13T02:09:28.977Z,39.30
2018-04-13T02:11:56.612Z,49.77
2018-04-13T02:14:24.210Z,44.10
2018-04-13T02:16:52.574Z,55.53
2018-04-13T02:19:20.194Z,44.40
2018-04-13T02:21:47.823Z,42.63
2018-04-13T02:24:15.410Z,44.70
2018-04-13T02:26:43.007Z,47.70
2018-04-13T02:29:10.632Z,44.53
2018-04-13T02:31:38.231Z,48.87
2018-04-13T02:34:05.851Z,45.40
2018-04-13T02:36:33.448Z,46.57
2018-04-13T02:39:01.070Z,43.13
2018-04-13T02:41:28.677Z,46.27
2018-04-13T02:43:56.299Z,50.03
2018-04-13T02:46:23.886Z,43.00
2018-04-13T02:48:51.520Z,48.40
2018-04-13T02:51:19.108Z,44.90
2018-04-13T02:53:46.703Z,41.43
2018-04-13T02:56:15.100Z,44.47
2018-04-13T02:58:42.699Z,47.97
2018-04-13T03:01:10.322Z,48.67
2018-04-13T03:03:37.918Z,52.57
2018-04-13T03:06:05.538Z,46.90
2018-04-13T03:08:33.134Z,49.90
2018-04-13T03:11:00.754Z,49.80
2018-04-13T03:13:28.355Z,43.97
2018-04-13T03:15:55.991Z,55.00
2018-04-13T03:18:23.593Z,54.63
2018-04-13T03:20:51.182Z,49.87
2018-04-13T03:23:19.578Z,50.30
2018-04-13T03:25:47.165Z,46.60
2018-04-13T03:28:14.761Z,48.93
2018-04-13T03:30:42.398Z,48.07
2018-04-13T03:33:10.021Z,46.10
2018-04-13T03:35:37.618Z,51.00
2018-04-13T03:38:05.213Z,48.30
2018-04-13T03:40:32.835Z,43.00
2018-04-13T03:43:00.431Z,50.27
2018-04-13T03:45:28.055Z,49.77
2018-04-13T03:47:55.642Z,47.67
2018-04-13T03:50:23.239Z,49.30
2018-04-13T03:52:51.630Z,50.50
2018-04-13T03:55:19.217Z,47.60
2018-04-13T03:57:46.840Z,49.63
2018-04-13T04:00:15.207Z,45.27
2018-04-13T04:02:43.590Z,43.90
2018-04-13T04:05:11.946Z,47.07
2018-04-13T04:07:40.399Z,49.60
2018-04-13T04:10:07.985Z,50.60
2018-04-13T04:12:35.597Z,51.93
2018-04-13T04:15:03.196Z,50.03
2018-04-13T04:17:30.826Z,50.03
2018-04-13T04:20:12.020Z,53.27
2018-04-13T04:22:51.558Z,50.23
2018-04-13T04:28:17.748Z,52.90
2018-04-13T04:30:46.183Z,51.53
2018-04-13T04:33:13.778Z,55.20
2018-04-13T04:35:41.412Z,58.13
2018-04-13T04:38:09.022Z,57.83
2018-04-13T04:40:37.393Z,54.70
2018-04-13T04:43:05.794Z,51.53
2018-04-13T04:45:33.387Z,51.30
2018-04-13T04:48:01.019Z,48.87
2018-04-13T04:50:28.614Z,51.93
2018-04-13T04:52:56.222Z,43.90
2018-04-13T04:55:24.607Z,50.50
2018-04-13T04:57:52.969Z,52.37
2018-04-13T05:00:21.350Z,56.53
2018-04-13T05:02:49.718Z,52.60
2018-04-13T05:05:18.123Z,52.53
2018-04-13T05:07:45.722Z,49.80
2018-04-13T05:10:13.318Z,51.97
2018-04-13T05:12:40.956Z,51.97
2018-04-13T05:15:08.556Z,61.30
2018-04-13T05:17:36.942Z,60.73
2018-04-13T05:20:04.534Z,49.93
2018-04-13T05:22:32.189Z,48.33
2018-04-13T05:24:59.771Z,54.23
2018-04-13T05:27:27.394Z,56.73
2018-04-13T05:29:55.000Z,54.50
2018-04-13T05:32:22.634Z,50.90
2018-04-13T05:34:50.239Z,55.10
2018-04-13T05:37:17.866Z,51.17
2018-04-13T05:39:45.461Z,54.57
2018-04-13T05:42:13.051Z,55.77
2018-04-13T05:44:41.436Z,56.80
2018-04-13T05:47:09.039Z,56.03
2018-04-13T05:49:36.674Z,51.63
2018-04-13T05:52:04.273Z,50.50
2018-04-13T05:54:31.873Z,52.60
2018-04-13T05:57:00.263Z,56.70
2018-04-13T05:59:27.918Z,45.23
2018-04-13T06:01:55.546Z,51.03
2018-04-13T06:04:23.138Z,47.93
2018-04-13T06:06:51.499Z,46.37
2018-04-13T06:09:19.130Z,57.90
2018-04-13T06:11:46.739Z,52.70
2018-04-13T06:14:15.132Z,51.40
2018-04-13T06:16:42.741Z,51.50
2018-04-13T06:19:10.371Z,52.97
2018-04-13T06:21:37.977Z,47.87
2018-04-13T06:24:05.604Z,47.53
2018-04-13T06:26:33.199Z,50.97
2018-04-13T06:29:00.824Z,54.40
2018-04-13T06:31:28.414Z,45.50
2018-04-13T06:33:56.043Z,49.13
2018-04-13T06:36:23.636Z,59.27
2018-04-13T06:38:51.259Z,57.37
2018-04-13T06:41:18.926Z,49.67
2018-04-13T06:43:46.551Z,46.00
2018-04-13T06:46:14.154Z,43.40
2018-04-13T06:48:41.858Z,51.23
2018-04-13T06:51:11.573Z,45.40
2018-04-13T06:53:39.330Z,49.30
2018-04-13T06:56:07.685Z,48.17
2018-04-13T06:58:35.344Z,45.87
2018-04-13T07:01:02.952Z,44.20
2018-04-13T07:03:30.580Z,50.73
2018-04-13T07:05:58.936Z,50.60
2018-04-13T07:08:26.550Z,52.27
2018-04-13T07:10:54.936Z,52.27
2018-04-13T07:13:22.565Z,50.63
2018-04-13T07:15:50.159Z,50.10
2018-04-13T07:18:17.750Z,49.53
2018-04-13T07:20:45.375Z,48.30
2018-04-13T07:23:12.967Z,56.37
2018-04-13T07:25:40.593Z,46.70
2018-04-13T07:28:08.947Z,53.57
2018-04-13T07:30:37.338Z,46.93
2018-04-13T07:33:05.697Z,50.47
2018-04-13T07:35:34.112Z,39.77
2018-04-13T07:38:01.724Z,49.50
2018-04-13T07:40:29.780Z,53.60
2018-04-13T07:42:56.959Z,49.10
2018-04-13T07:45:24.569Z,51.33
2018-04-13T07:47:52.165Z,50.17
2018-04-13T07:50:20.297Z,50.13
2018-04-13T07:52:47.406Z,49.97
2018-04-13T07:55:15.055Z,52.07
2018-04-13T07:57:42.650Z,56.43
2018-04-13T08:00:11.009Z,49.90
2018-04-13T08:02:38.628Z,48.47
2018-04-13T08:05:06.232Z,43.00
2018-04-13T08:07:33.858Z,54.80
2018-04-13T08:10:01.450Z,52.37
2018-04-13T08:12:29.838Z,48.37
2018-04-13T08:14:58.234Z,51.20
2018-04-13T08:17:26.705Z,50.60
2018-04-13T08:19:55.158Z,53.07
2018-04-13T08:22:22.924Z,57.27
2018-04-13T08:24:50.683Z,40.53
2018-04-13T08:27:18.453Z,61.17
2018-04-13T08:29:46.106Z,47.37
2018-04-13T08:32:13.935Z,53.00
2018-04-13T08:34:41.767Z,51.43
2018-04-13T08:37:10.238Z,49.27
2018-04-13T08:39:37.856Z,47.30
2018-04-13T08:42:05.647Z,47.80
2018-04-13T08:44:33.413Z,44.90
2018-04-13T08:47:01.274Z,44.67
2018-04-13T08:49:29.052Z,50.80
2018-04-13T08:51:56.682Z,50.60
2018-04-13T08:54:24.318Z,45.87
2018-04-13T08:56:52.019Z,48.00
2018-04-13T08:59:19.618Z,47.23
2018-04-13T09:01:47.983Z,48.87
2018-04-13T09:04:16.419Z,48.50
2018-04-13T09:06:44.030Z,45.20
2018-04-13T09:09:12.122Z,47.33
2018-04-13T09:11:39.926Z,43.27
2018-04-13T09:14:07.558Z,44.93
2018-04-13T09:16:35.154Z,47.83
2018-04-13T09:19:02.781Z,47.00
2018-04-13T09:21:30.383Z,41.97
2018-04-13T09:23:58.007Z,36.70
2018-04-13T09:26:25.607Z,35.37
2018-04-13T09:28:53.266Z,37.77
2018-04-13T09:31:20.861Z,35.67
2018-04-13T09:33:49.250Z,34.43
2018-04-13T09:36:17.619Z,36.37
2018-04-13T09:38:46.016Z,35.23
2018-04-13T09:41:13.615Z,31.10
2018-04-13T09:43:41.240Z,42.80
2018-04-13T09:46:08.848Z,30.20
2018-04-13T09:48:36.636Z,31.77
2018-04-13T09:51:04.354Z,31.80
2018-04-13T09:53:32.146Z,39.40
2018-04-13T09:55:59.740Z,30.00
2018-04-13T09:58:28.104Z,31.90
2018-04-13T10:01:00.673Z,35.80
2018-04-13T10:03:35.702Z,32.60
2018-04-13T10:06:03.654Z,32.77
2018-04-13T10:08:31.270Z,33.50
2018-04-13T10:10:59.853Z,30.93
2018-04-13T10:13:27.455Z,32.20
2018-04-13T10:15:55.086Z,34.57
2018-04-13T10:18:22.671Z,35.13
2018-04-13T10:20:50.305Z,31.40
2018-04-13T10:23:17.903Z,34.37
2018-04-13T10:25:45.522Z,36.80
2018-04-13T10:30:46.820Z,39.60
2018-04-13T10:33:14.422Z,29.17
2018-04-13T10:35:42.818Z,32.30
2018-04-13T10:38:10.429Z,39.17
2018-04-13T10:40:38.070Z,32.20
2018-04-13T10:43:05.710Z,35.07
2018-04-13T10:45:33.322Z,30.57
2018-04-13T10:48:00.918Z,32.90
2018-04-13T10:50:29.332Z,29.07
2018-04-13T10:52:57.008Z,34.47
2018-04-13T10:55:24.637Z,29.80
2018-04-13T10:57:52.230Z,31.00
2018-04-13T11:00:19.816Z,30.47
2018-04-13T11:02:48.419Z,38.10
2018-04-13T11:05:16.790Z,38.20
2018-04-13T11:07:44.410Z,34.07
2018-04-13T11:10:12.008Z,33.03
2018-04-13T11:12:39.633Z,48.27
2018-04-13T11:15:07.246Z,43.40
2018-04-13T11:17:35.639Z,43.80
2018-04-13T11:20:03.229Z,57.03
2018-04-13T11:22:30.850Z,39.20
2018-04-13T11:24:59.210Z,37.77
2018-04-13T11:27:26.835Z,47.10
2018-04-13T11:29:54.430Z,38.53
2018-04-13T11:32:22.052Z,37.37
2018-04-13T11:34:49.648Z,38.60
2018-04-13T11:37:17.289Z,35.57
2018-04-13T11:39:44.887Z,32.23
2018-04-13T11:42:13.437Z,35.67
2018-04-13T11:44:41.034Z,37.70
2018-04-13T11:47:09.422Z,33.20
2018-04-13T11:49:37.029Z,34.73
2018-04-13T11:52:04.686Z,40.27
2018-04-13T11:54:32.274Z,37.03
2018-04-13T11:56:59.874Z,31.80
2018-04-13T11:59:27.502Z,35.37
2018-04-13T12:01:55.879Z,47.00
2018-04-13T12:04:23.507Z,41.10
2018-04-13T12:06:51.099Z,31.20
2018-04-13T12:09:18.691Z,33.00
2018-04-13T12:11:46.322Z,29.90
2018-04-13T12:14:14.696Z,27.80
2018-04-13T12:16:43.067Z,32.07
2018-04-13T12:19:10.686Z,31.70
2018-04-13T12:21:38.270Z,32.23
2018-04-13T12:24:05.890Z,33.70
2018-04-13T12:26:33.511Z,33.97
2018-04-13T12:29:01.248Z,31.90
2018-04-13T12:31:29.133Z,33.57
2018-04-13T12:33:56.879Z,28.70
2018-04-13T12:36:24.479Z,35.00
2018-04-13T12:38:52.085Z,30.43
2018-04-13T12:41:20.553Z,27.63
2018-04-13T12:43:48.147Z,30.00
2018-04-13T12:46:16.030Z,26.17
2018-04-13T12:48:43.994Z,28.27
2018-04-13T12:51:11.591Z,29.83
2018-04-13T12:53:40.035Z,22.37
2018-04-13T12:56:07.610Z,20.63
2018-04-13T12:58:35.230Z,22.90
2018-04-13T13:01:02.838Z,22.63
2018-04-13T13:03:30.494Z,29.37
2018-04-13T13:05:58.878Z,20.97
2018-04-13T13:08:26.504Z,19.30
2018-04-13T13:10:54.103Z,20.33
2018-04-13T13:13:21.726Z,22.57
2018-04-13T13:15:49.443Z,18.67
2018-04-13T13:18:17.141Z,16.33
2018-04-13T13:20:44.767Z,14.43
2018-04-13T13:23:14.088Z,19.80
2018-04-13T13:25:41.692Z,21.90
2018-04-13T13:28:09.310Z,18.13
2018-04-13T13:30:36.912Z,16.80
2018-04-13T13:33:04.523Z,14.50
2018-04-13T13:35:32.119Z,18.57
2018-04-13T13:37:59.714Z,11.10
2018-04-13T13:40:27.337Z,12.00
2018-04-13T13:42:54.938Z,15.63
2018-04-13T13:45:22.563Z,14.50
2018-04-13T13:47:50.159Z,16.13
2018-04-13T13:50:17.789Z,15.63
2018-04-13T13:52:45.397Z,13.87
2018-04-13T13:55:13.790Z,15.23
2018-04-13T13:57:41.379Z,15.57
2018-04-13T14:00:09.014Z,14.53
2018-04-13T14:02:36.616Z,17.00
2018-04-13T14:05:04.269Z,16.23
2018-04-13T14:07:31.862Z,14.80
2018-04-13T14:09:59.483Z,15.97
2018-04-13T14:12:27.082Z,19.70
2018-04-13T14:14:54.725Z,21.20
2018-04-13T14:17:22.326Z,18.23
2018-04-13T14:19:50.718Z,14.30
2018-04-13T14:22:18.311Z,20.00
2018-04-13T14:24:45.904Z,20.67
2018-04-13T14:27:13.527Z,17.23
2018-04-13T14:29:41.112Z,15.73
2018-04-13T14:32:08.744Z,19.40
2018-04-13T14:34:36.446Z,13.60
2018-04-13T14:37:04.838Z,18.10
2018-04-13T14:39:33.190Z,16.87
2018-04-13T14:42:00.811Z,13.77
2018-04-13T14:44:28.410Z,17.47
2018-04-13T14:46:56.058Z,15.57
2018-04-13T14:49:23.657Z,19.83
2018-04-13T14:51:51.283Z,18.97
2018-04-13T14:54:18.942Z,16.77
2018-04-13T14:56:46.559Z,18.27
2018-04-13T14:59:14.930Z,24.27
2018-04-13T15:01:43.329Z,17.50
2018-04-13T15:04:10.930Z,17.00
2018-04-13T15:06:38.550Z,20.77
2018-04-13T15:09:06.149Z,21.20
2018-04-13T15:11:33.772Z,17.97
2018-04-13T15:14:01.368Z,20.00
2018-04-13T15:16:29.009Z,26.60
2018-04-13T15:18:56.606Z,17.10
2018-04-13T15:21:24.202Z,21.80
2018-04-13T15:23:52.591Z,21.10
2018-04-13T15:26:20.179Z,22.53
2018-04-13T15:28:47.807Z,25.00
2018-04-13T15:31:15.418Z,19.37
2018-04-13T15:33:43.043Z,22.57
2018-04-13T15:36:10.631Z,17.20
2018-04-13T15:38:38.263Z,19.63
2018-04-13T15:41:05.866Z,26.87
2018-04-13T15:43:33.487Z,20.83
2018-04-13T15:46:01.114Z,19.97
2018-04-13T15:48:29.498Z,25.90
2018-04-13T15:50:57.878Z,24.63
2018-04-13T15:53:26.271Z,22.70
2018-04-13T15:55:53.870Z,26.80
2018-04-13T15:58:22.140Z,18.50
2018-04-13T16:00:50.562Z,25.03
2018-04-13T16:03:18.958Z,19.93
2018-04-13T16:05:47.687Z,19.20
2018-04-13T16:08:19.410Z,20.50
2018-04-13T16:10:47.185Z,19.67
2018-04-13T16:13:15.192Z,22.47
2018-04-13T16:15:42.957Z,20.57
2018-04-13T16:18:14.869Z,19.43
2018-04-13T16:20:42.896Z,17.43
2018-04-13T16:23:10.670Z,18.57
2018-04-13T16:25:38.536Z,21.17
2018-04-13T16:28:06.388Z,18.77
2018-04-13T16:30:35.029Z,19.20
2018-04-13T16:33:02.847Z,19.90
2018-04-13T16:35:30.710Z,21.00
2018-04-13T16:37:58.572Z,20.47
2018-04-13T16:40:26.214Z,17.00
2018-04-13T16:42:53.811Z,19.40
2018-04-13T16:45:22.202Z,23.70
2018-04-13T16:47:49.807Z,31.23
2018-04-13T16:50:17.423Z,19.23
2018-04-13T16:52:45.031Z,19.00
2018-04-13T16:55:12.657Z,16.07
2018-04-13T16:57:41.433Z,12.77
2018-04-13T17:00:09.814Z,8.87
2018-04-13T17:02:38.172Z,15.50
2018-04-13T17:05:05.787Z,7.23
2018-04-13T17:07:33.379Z,9.53
2018-04-13T17:10:01.001Z,9.73
2018-04-13T17:12:28.594Z,7.50
2018-04-13T17:14:56.213Z,8.90
2018-04-13T17:17:23.803Z,5.13
2018-04-13T17:19:51.426Z,6.63
2018-04-13T17:22:19.786Z,4.00
2018-04-13T17:24:48.143Z,4.10
2018-04-13T17:27:15.756Z,2.90
2018-04-13T17:29:43.350Z,2.60
2018-04-13T17:32:10.963Z,4.20
2018-04-13T17:34:39.319Z,5.20
2018-04-13T17:37:07.707Z,6.23
2018-04-13T17:39:35.536Z,5.43
2018-04-13T17:42:03.340Z,7.03
2018-04-13T17:44:31.716Z,3.23
2018-04-13T17:47:00.370Z,4.40
2018-04-13T17:49:28.943Z,3.20
2018-04-13T17:51:56.707Z,5.33
2018-04-13T17:54:24.473Z,2.93
2018-04-13T17:56:52.339Z,2.73
2018-04-13T17:59:20.049Z,2.90
2018-04-13T18:01:48.689Z,3.57
2018-04-13T18:04:16.553Z,3.80
2018-04-13T18:06:44.164Z,6.13
2018-04-13T18:09:12.552Z,3.90
2018-04-13T18:11:40.903Z,4.00
2018-04-13T18:14:08.514Z,4.23
2018-04-13T18:16:36.104Z,5.13
2018-04-13T18:19:03.734Z,3.43
2018-04-13T18:21:31.319Z,5.03
2018-04-13T18:23:58.945Z,4.17
2018-04-13T18:26:26.539Z,3.50
2018-04-13T18:28:54.162Z,3.17
2018-04-13T18:31:21.761Z,4.23
2018-04-13T18:33:49.412Z,5.33
2018-04-13T18:36:17.005Z,5.27
2018-04-13T18:38:44.624Z,4.70
2018-04-13T18:41:12.214Z,4.40
2018-04-13T18:43:39.836Z,4.33
2018-04-13T18:46:07.419Z,4.30
2018-04-13T18:48:35.002Z,6.30
2018-04-13T18:51:02.621Z,5.37
2018-04-13T18:53:30.208Z,5.70
2018-04-13T18:55:57.822Z,6.17
2018-04-13T18:58:26.187Z,8.63
2018-04-13T19:00:54.585Z,6.53
2018-04-13T19:03:22.174Z,9.60
2018-04-13T19:05:49.787Z,8.10
2018-04-13T19:08:18.146Z,8.63
2018-04-13T19:10:45.745Z,9.30
2018-04-13T19:13:14.171Z,8.33
2018-04-13T19:15:41.766Z,10.90
2018-04-13T19:18:10.150Z,7.00
2018-04-13T19:20:38.514Z,9.60
2018-04-13T19:23:06.130Z,8.03
2018-04-13T19:25:33.715Z,6.83
2018-04-13T19:28:01.342Z,11.10
2018-04-13T19:30:28.936Z,10.80
2018-04-13T19:32:56.547Z,8.47
2018-04-13T19:35:24.909Z,8.93
2018-04-13T19:37:53.293Z,14.40
2018-04-13T19:40:21.651Z,14.27
2018-04-13T19:42:49.275Z,12.33
2018-04-13T19:45:16.930Z,11.03
2018-04-13T19:47:45.290Z,10.80
2018-04-13T19:50:12.884Z,14.40
2018-04-13T19:52:40.510Z,10.47
2018-04-13T19:55:08.119Z,9.07
2018-04-13T19:57:35.734Z,14.77
2018-04-13T20:00:03.333Z,18.30
2018-04-13T20:02:30.950Z,19.43
2018-04-13T20:04:58.557Z,17.90
2018-04-13T20:07:26.187Z,23.43
2018-04-13T20:09:53.787Z,24.40
2018-04-13T20:12:21.380Z,22.63
2018-04-13T20:14:49.769Z,24.83
2018-04-13T20:17:18.134Z,36.83
2018-04-13T20:19:46.575Z,37.97
2018-04-13T20:22:14.197Z,35.90
2018-04-13T20:24:41.816Z,42.13
2018-04-13T20:27:10.218Z,36.20
2018-04-13T20:29:38.635Z,28.83
2018-04-13T20:32:06.231Z,22.23
2018-04-13T20:34:33.858Z,30.80
2018-04-13T20:37:01.455Z,16.40
2018-04-13T20:39:29.840Z,33.43
2018-04-13T20:41:58.314Z,29.33
2018-04-13T20:44:25.959Z,31.47
2018-04-13T20:46:53.550Z,37.13
2018-04-13T20:49:21.156Z,34.93
2018-04-13T20:51:48.809Z,38.20
2018-04-13T20:54:16.416Z,35.37
2018-04-13T20:56:44.039Z,30.87
2018-04-13T20:59:11.639Z,35.80
2018-04-13T21:01:39.264Z,43.40
2018-04-13T21:04:06.866Z,42.07
2018-04-13T21:06:34.496Z,36.97
2018-04-13T21:09:02.093Z,45.10
2018-04-13T21:11:30.472Z,52.17
2018-04-13T21:13:58.861Z,50.07
2018-04-13T21:16:27.231Z,51.87
2018-04-13T21:18:54.852Z,47.97
2018-04-13T21:21:22.451Z,51.93
2018-04-13T21:23:50.087Z,48.10
2018-04-13T21:26:17.965Z,52.33
2018-04-13T21:28:45.595Z,55.07
2018-04-13T21:31:13.202Z,58.00
2018-04-13T21:33:40.823Z,55.77
2018-04-13T21:36:08.495Z,65.10
2018-04-13T21:38:36.130Z,63.77
2018-04-13T21:41:03.726Z,58.57
2018-04-13T21:43:31.355Z,59.13
2018-04-13T21:45:58.950Z,64.60
2018-04-13T21:48:26.566Z,63.73
2018-04-13T21:50:54.171Z,64.10
2018-04-13T21:53:21.794Z,62.17
2018-04-13T21:55:49.427Z,65.17
2018-04-13T21:58:17.829Z,73.33
2018-04-13T22:00:45.434Z,62.70
2018-04-13T22:03:13.355Z,61.10
2018-04-13T22:05:41.742Z,57.60
2018-04-13T22:08:09.334Z,61.67
2018-04-13T22:10:36.957Z,62.33
2018-04-13T22:13:16.626Z,59.37
2018-04-13T22:15:44.246Z,59.80
2018-04-13T22:18:12.614Z,60.23
2018-04-13T22:20:40.247Z,60.30
2018-04-13T22:23:07.853Z,57.83
2018-04-13T22:25:36.234Z,58.57
2018-04-13T22:28:04.598Z,67.50
2018-04-13T22:30:32.983Z,62.10
2018-04-13T22:33:01.338Z,49.80
2018-04-13T22:35:29.717Z,61.10
2018-04-13T22:37:57.306Z,61.37
2018-04-13T22:40:25.691Z,59.80
2018-04-13T22:42:53.286Z,55.40
2018-04-13T22:45:20.906Z,55.87
2018-04-13T22:47:49.262Z,56.23
2018-04-13T22:50:16.935Z,62.37
2018-04-13T22:52:44.514Z,57.40
2018-04-13T22:55:12.135Z,66.60
2018-04-13T22:57:39.730Z,50.67
2018-04-13T23:00:07.359Z,39.13
2018-04-13T23:02:34.951Z,52.83
2018-04-13T23:05:02.585Z,42.97
2018-04-13T23:07:30.222Z,65.10
2018-04-13T23:09:57.818Z,49.20
2018-04-13T23:12:25.430Z,54.03
2018-04-13T23:14:53.050Z,58.53
2018-04-13T23:17:21.438Z,61.77
2018-04-13T23:19:49.803Z,59.30
2018-04-13T23:22:30.066Z,56.20
2018-04-13T23:24:58.425Z,40.13
2018-04-13T23:27:26.062Z,46.43
2018-04-13T23:29:53.655Z,61.40
2018-04-13T23:32:21.259Z,61.10
2018-04-13T23:34:48.890Z,42.30
2018-04-13T23:37:17.254Z,50.27
2018-04-13T23:39:44.862Z,58.53
2018-04-13T23:42:12.493Z,64.23
2018-04-13T23:44:40.849Z,60.60
2018-04-13T23:47:08.438Z,61.47
2018-04-13T23:49:36.071Z,57.53
2018-04-13T23:52:03.658Z,64.30
2018-04-13T23:54:32.017Z,62.37
2018-04-13T23:57:00.413Z,57.47
2018-04-13T23:59:28.775Z,66.53
